Time;durP1;ratioP1;P1;durP2;ratioP2;P2;SDS_P1;SDS_P2;PMS_P1;PMS_P2;Temp;Humidity;BMP_temperature;BMP_pressure;BME280_temperature;BME280_humidity;BME280_pressure;Samples;Min_cycle;Max_cycle;Signal;HPM_P1;HPM_P2
2022/11/03 00:02:17;;;;;;;;;;;7.20;83.20;;;;;;4945960;28;19924;-82
2022/11/03 00:04:42;;;;;;;;;;;7.10;83.20;;;;;;4970306;28;20874;-82
2022/11/03 00:07:07;;;;;;;;;;;7.10;83.20;;;;;;4984147;28;19926;-81
2022/11/03 00:09:33;;;;;;;;;;;7.00;83.20;;;;;;4953502;28;21096;-82
2022/11/03 00:12:00;;;;;;;;;;;7.00;83.20;;;;;;4984055;28;20014;-82
2022/11/03 00:14:26;;;;;;;;;;;7.00;83.20;;;;;;4972686;28;19918;-82
2022/11/03 00:16:51;;;;;;;;;;;7.00;83.30;;;;;;4962834;28;19925;-82
2022/11/03 00:19:17;;;;;;;;;;;6.90;83.30;;;;;;4957591;28;20597;-82
2022/11/03 00:21:42;;;;;;;;;;;6.90;83.30;;;;;;4985679;28;19913;-82
2022/11/03 00:24:13;;;;;;;;;;;6.90;83.50;;;;;;4974421;28;20432;-82
2022/11/03 00:26:38;;;;;;;;;;;6.90;83.50;;;;;;4966431;28;19914;-82
2022/11/03 00:29:11;;;;;;;;;;;6.90;83.50;;;;;;4955796;28;19925;-82
2022/11/03 00:31:37;;;;;;;;;;;6.90;83.50;;;;;;4952882;28;19918;-82
2022/11/03 00:34:03;;;;;;;;;;;6.80;83.40;;;;;;4963559;28;19994;-82
2022/11/03 00:36:30;;;;;;;;;;;6.80;83.50;;;;;;4982709;28;19986;-82
2022/11/03 00:38:55;;;;;;;;;;;6.80;84.30;;;;;;4943909;28;19920;-82
2022/11/03 00:41:21;;;;;;;;;;;6.80;83.50;;;;;;4943474;28;20016;-81
2022/11/03 00:43:46;;;;;;;;;;;6.80;83.50;;;;;;4954476;28;20523;-82
2022/11/03 00:46:12;;;;;;;;;;;6.80;83.50;;;;;;4972655;28;19925;-82
2022/11/03 00:48:38;;;;;;;;;;;6.70;83.40;;;;;;4966062;28;19984;-82
2022/11/03 00:51:04;;;;;;;;;;;6.70;83.50;;;;;;4951493;28;20424;-81
2022/11/03 00:53:30;;;;;;;;;;;6.70;83.50;;;;;;4981683;28;19972;-82
2022/11/03 00:55:56;;;;;;;;;;;6.70;83.60;;;;;;4967659;28;19922;-81
2022/11/03 00:58:21;;;;;;;;;;;6.70;83.60;;;;;;4978841;28;19917;-81
2022/11/03 01:00:47;;;;;;;;;;;6.60;83.50;;;;;;4970615;28;19922;-81
2022/11/03 01:03:12;;;;;;;;;;;6.60;83.50;;;;;;4970097;28;19918;-82
2022/11/03 01:08:30;;;;;;;;;;;6.60;83.60;;;;;;4966435;28;19933;-82
2022/11/03 01:13:40;;;;;;;;;;;6.50;83.70;;;;;;4972904;28;19920;-82
2022/11/03 01:16:05;;;;;;;;;;;6.50;83.70;;;;;;4954060;28;19915;-81
2022/11/03 01:18:31;;;;;;;;;;;6.50;83.70;;;;;;4955654;28;19925;-81
2022/11/03 01:20:56;;;;;;;;;;;6.60;83.80;;;;;;4969748;28;20513;-81
2022/11/03 01:23:22;;;;;;;;;;;6.60;83.80;;;;;;4977014;28;19926;-81
2022/11/03 01:25:47;;;;;;;;;;;6.60;83.80;;;;;;4956416;28;19922;-82
2022/11/03 01:28:13;;;;;;;;;;;6.50;83.70;;;;;;4982237;28;19924;-82
2022/11/03 01:30:38;;;;;;;;;;;6.50;83.80;;;;;;4957185;28;20266;-81
2022/11/03 01:33:04;;;;;;;;;;;6.50;83.70;;;;;;4970312;28;19914;-82
2022/11/03 01:35:29;;;;;;;;;;;6.50;83.80;;;;;;4985671;28;19999;-82
2022/11/03 01:37:58;;;;;;;;;;;6.50;83.90;;;;;;4970734;28;20283;-81
2022/11/03 01:40:23;;;;;;;;;;;6.50;83.80;;;;;;4971080;28;19991;-81
2022/11/03 01:42:49;;;;;;;;;;;6.50;83.90;;;;;;4969476;28;19979;-81
2022/11/03 01:45:14;;;;;;;;;;;6.50;83.80;;;;;;4949494;28;19922;-82
2022/11/03 01:47:39;;;;;;;;;;;6.50;83.90;;;;;;4971775;28;20276;-81
2022/11/03 01:50:07;;;;;;;;;;;6.50;83.80;;;;;;4986154;28;19918;-81
2022/11/03 01:52:35;;;;;;;;;;;6.50;83.90;;;;;;4972150;28;19929;-82
2022/11/03 01:55:02;;;;;;;;;;;6.40;83.80;;;;;;4969047;28;20308;-81
2022/11/03 01:57:33;;;;;;;;;;;6.40;83.80;;;;;;4967831;28;19922;-82
2022/11/03 01:59:58;;;;;;;;;;;6.40;83.80;;;;;;4953147;28;19961;-82
2022/11/03 02:02:24;;;;;;;;;;;6.30;83.90;;;;;;4969218;28;19956;-81
2022/11/03 02:04:49;;;;;;;;;;;6.40;84.00;;;;;;4969935;28;19922;-81
2022/11/03 02:07:21;;;;;;;;;;;6.40;84.10;;;;;;4986311;28;20311;-82
2022/11/03 02:09:47;;;;;;;;;;;6.40;84.10;;;;;;4969571;28;20468;-81
2022/11/03 02:12:12;;;;;;;;;;;6.30;84.00;;;;;;4968756;28;19918;-81
2022/11/03 02:14:39;;;;;;;;;;;6.30;84.00;;;;;;4973214;28;19960;-81
2022/11/03 02:17:06;;;;;;;;;;;6.40;84.10;;;;;;4975015;28;20028;-82
2022/11/03 02:19:33;;;;;;;;;;;6.30;84.10;;;;;;4990450;28;19922;-82
2022/11/03 02:22:04;;;;;;;;;;;6.40;84.10;;;;;;4969086;28;19922;-81
2022/11/03 02:24:33;;;;;;;;;;;6.30;84.00;;;;;;4973212;28;19942;-81
2022/11/03 02:26:59;;;;;;;;;;;6.30;84.00;;;;;;4974497;28;19921;-82
2022/11/03 02:29:24;;;;;;;;;;;6.30;84.10;;;;;;4957001;28;20181;-82
2022/11/03 02:31:53;;;;;;;;;;;6.30;84.10;;;;;;4957389;28;19928;-81
2022/11/03 02:34:22;;;;;;;;;;;6.30;84.10;;;;;;4991337;28;19918;-82
2022/11/03 02:37:08;;;;;;;;;;;6.30;84.10;;;;;;4970242;28;19926;-81
2022/11/03 02:39:35;;;;;;;;;;;6.30;84.10;;;;;;4986472;28;19948;-81
2022/11/03 02:42:00;;;;;;;;;;;6.30;84.10;;;;;;4986181;28;19914;-81
2022/11/03 02:44:26;;;;;;;;;;;6.30;84.10;;;;;;4969304;28;19969;-81
2022/11/03 02:46:53;;;;;;;;;;;6.30;84.10;;;;;;4971061;28;19932;-81
2022/11/03 02:49:19;;;;;;;;;;;6.30;84.10;;;;;;4968424;28;19921;-82
2022/11/03 02:51:44;;;;;;;;;;;6.30;84.20;;;;;;4971945;28;20304;-82
2022/11/03 02:54:18;;;;;;;;;;;6.30;84.20;;;;;;4984559;28;19924;-81
2022/11/03 02:56:51;;;;;;;;;;;6.30;84.20;;;;;;4951901;28;19918;-81
2022/11/03 02:59:20;;;;;;;;;;;6.30;84.20;;;;;;4985816;28;19914;-82
2022/11/03 03:01:52;;;;;;;;;;;6.20;84.20;;;;;;4943952;28;19920;-82
2022/11/03 03:04:40;;;;;;;;;;;6.30;84.20;;;;;;4969891;28;19922;-81
2022/11/03 03:07:07;;;;;;;;;;;6.30;84.30;;;;;;4980356;28;19933;-82
2022/11/03 03:09:34;;;;;;;;;;;6.30;84.30;;;;;;4974089;28;19976;-82
2022/11/03 03:11:59;;;;;;;;;;;6.30;85.10;;;;;;4979990;28;19917;-81
2022/11/03 03:14:27;;;;;;;;;;;6.20;84.30;;;;;;4966170;28;19937;-81
2022/11/03 03:16:53;;;;;;;;;;;6.20;84.30;;;;;;4939462;28;19918;-82
2022/11/03 03:19:18;;;;;;;;;;;6.20;84.40;;;;;;4985909;28;19914;-81
2022/11/03 03:21:44;;;;;;;;;;;6.30;84.40;;;;;;4988802;28;20008;-82
2022/11/03 03:24:25;;;;;;;;;;;6.30;84.30;;;;;;4967847;28;19914;-81
2022/11/03 03:26:50;;;;;;;;;;;6.40;84.30;;;;;;4983602;28;20598;-81
2022/11/03 03:29:18;;;;;;;;;;;6.40;84.30;;;;;;4986647;28;19917;-81
2022/11/03 03:31:46;;;;;;;;;;;6.30;84.30;;;;;;4980739;28;20272;-82
2022/11/03 03:34:11;;;;;;;;;;;6.40;84.30;;;;;;4951078;28;20499;-81
2022/11/03 03:36:37;;;;;;;;;;;6.30;84.30;;;;;;4969825;28;19918;-81
2022/11/03 03:39:03;;;;;;;;;;;6.30;84.30;;;;;;4969163;28;20328;-82
2022/11/03 03:41:31;;;;;;;;;;;6.30;84.20;;;;;;4969192;28;19921;-81
2022/11/03 03:43:58;;;;;;;;;;;6.30;84.30;;;;;;4967730;28;19968;-82
2022/11/03 03:46:24;;;;;;;;;;;6.30;84.30;;;;;;4966642;28;20012;-82
2022/11/03 03:48:50;;;;;;;;;;;6.30;84.20;;;;;;4949399;28;20376;-81
2022/11/03 03:51:15;;;;;;;;;;;6.30;84.30;;;;;;4987248;28;19956;-81
2022/11/03 03:53:41;;;;;;;;;;;6.30;84.40;;;;;;4978020;28;20505;-81
2022/11/03 03:56:06;;;;;;;;;;;6.30;84.30;;;;;;4964647;28;19925;-81
2022/11/03 03:58:32;;;;;;;;;;;6.30;84.30;;;;;;4965652;28;19925;-82
2022/11/03 04:00:57;;;;;;;;;;;6.30;84.30;;;;;;4981813;28;19961;-82
2022/11/03 04:03:23;;;;;;;;;;;6.30;84.30;;;;;;4956816;28;19924;-81
2022/11/03 04:05:49;;;;;;;;;;;6.40;84.40;;;;;;4954291;28;19921;-81
2022/11/03 04:08:14;;;;;;;;;;;6.40;84.30;;;;;;4949205;28;19923;-81
2022/11/03 04:10:40;;;;;;;;;;;6.40;84.30;;;;;;4947004;28;19924;-81
2022/11/03 04:24:01;;;;;;;;;;;6.30;84.20;;;;;;4965389;28;19925;-81
2022/11/03 04:26:27;;;;;;;;;;;6.30;84.20;;;;;;4955394;28;19926;-81
2022/11/03 04:28:52;;;;;;;;;;;6.30;84.30;;;;;;4947655;28;19969;-81
2022/11/03 04:31:18;;;;;;;;;;;6.30;84.30;;;;;;4953027;28;19922;-81
2022/11/03 04:33:43;;;;;;;;;;;6.30;84.30;;;;;;4948830;28;20373;-82
2022/11/03 04:36:20;;;;;;;;;;;6.30;84.40;;;;;;4926595;28;19923;-82
2022/11/03 04:38:45;;;;;;;;;;;6.30;84.40;;;;;;4949882;28;19997;-81
2022/11/03 04:41:21;;;;;;;;;;;6.30;84.40;;;;;;4944745;28;19958;-83
2022/11/03 04:43:46;;;;;;;;;;;6.30;84.40;;;;;;4945390;28;19958;-82
2022/11/03 04:46:13;;;;;;;;;;;6.30;84.40;;;;;;4946754;28;20126;-82
2022/11/03 04:48:38;;;;;;;;;;;6.30;84.30;;;;;;4946502;28;19927;-82
2022/11/03 04:51:16;;;;;;;;;;;6.20;84.30;;;;;;4967490;28;19925;-82
2022/11/03 04:53:55;;;;;;;;;;;6.20;84.40;;;;;;4950607;28;20029;-82
2022/11/03 04:56:21;;;;;;;;;;;6.30;84.40;;;;;;4945972;28;19971;-82
2022/11/03 04:58:47;;;;;;;;;;;6.20;84.40;;;;;;4933036;28;19950;-82
2022/11/03 05:01:13;;;;;;;;;;;6.20;84.40;;;;;;4948269;28;20439;-80
2022/11/03 05:03:38;;;;;;;;;;;6.20;84.40;;;;;;4950626;28;19918;-82
2022/11/03 05:06:10;;;;;;;;;;;6.20;84.50;;;;;;4966722;28;20340;-81
2022/11/03 05:08:35;;;;;;;;;;;6.30;84.50;;;;;;4980218;28;19932;-83
2022/11/03 05:11:01;;;;;;;;;;;6.30;84.50;;;;;;4971873;28;19917;-81
2022/11/03 05:13:26;;;;;;;;;;;6.20;84.40;;;;;;4973732;28;19953;-82
2022/11/03 05:15:53;;;;;;;;;;;6.30;84.50;;;;;;4952779;28;19925;-82
2022/11/03 05:18:26;;;;;;;;;;;6.30;84.50;;;;;;4967794;28;20471;-81
2022/11/03 05:20:55;;;;;;;;;;;6.30;84.50;;;;;;4966106;28;20384;-81
2022/11/03 05:23:21;;;;;;;;;;;6.30;84.50;;;;;;4984446;28;20394;-81
2022/11/03 05:25:46;;;;;;;;;;;6.30;84.50;;;;;;4951151;28;19914;-82
2022/11/03 05:28:13;;;;;;;;;;;6.30;84.40;;;;;;4951204;28;19921;-83
2022/11/03 05:30:39;;;;;;;;;;;6.30;84.50;;;;;;4952371;28;19921;-81
2022/11/03 05:33:14;;;;;;;;;;;6.30;84.50;;;;;;4967733;28;19981;-81
2022/11/03 05:35:39;;;;;;;;;;;6.30;84.50;;;;;;4967170;28;19984;-82
2022/11/03 05:38:08;;;;;;;;;;;6.30;84.50;;;;;;4985124;28;20459;-81
2022/11/03 05:40:34;;;;;;;;;;;6.20;84.40;;;;;;4968211;28;19922;-82
2022/11/03 05:42:59;;;;;;;;;;;6.20;84.40;;;;;;4968338;28;19920;-82
2022/11/03 05:45:32;;;;;;;;;;;6.20;84.50;;;;;;4968016;28;19922;-81
2022/11/03 05:47:57;;;;;;;;;;;6.20;84.50;;;;;;4987276;28;19930;-82
2022/11/03 05:50:26;;;;;;;;;;;6.10;84.50;;;;;;4967388;28;20065;-81
2022/11/03 05:52:55;;;;;;;;;;;6.10;84.50;;;;;;4969306;28;19917;-81
2022/11/03 05:55:28;;;;;;;;;;;6.10;84.50;;;;;;4951839;28;19929;-82
2022/11/03 05:57:55;;;;;;;;;;;6.10;84.60;;;;;;4954679;28;19922;-81
2022/11/03 06:00:23;;;;;;;;;;;6.10;84.60;;;;;;4986261;28;19914;-81
2022/11/03 06:02:49;;;;;;;;;;;6.10;84.60;;;;;;4982829;28;19929;-82
2022/11/03 06:05:17;;;;;;;;;;;6.10;84.60;;;;;;4970958;28;19975;-80
2022/11/03 06:07:42;;;;;;;;;;;6.10;84.60;;;;;;4986454;28;19953;-81
2022/11/03 06:10:17;;;;;;;;;;;6.20;84.60;;;;;;4999553;28;19965;-82
2022/11/03 06:12:42;;;;;;;;;;;6.10;84.60;;;;;;4997534;28;20323;-80
2022/11/03 06:15:08;;;;;;;;;;;6.10;84.50;;;;;;4997442;28;19923;-81
2022/11/03 06:17:33;;;;;;;;;;;6.10;84.60;;;;;;5004991;28;19921;-82
2022/11/03 06:19:59;;;;;;;;;;;6.10;84.60;;;;;;4987368;28;19921;-81
2022/11/03 06:22:27;;;;;;;;;;;6.10;84.60;;;;;;4988615;28;19914;-81
2022/11/03 06:25:00;;;;;;;;;;;6.10;84.60;;;;;;4966048;28;19933;-82
2022/11/03 06:27:27;;;;;;;;;;;6.10;84.70;;;;;;4970429;28;19961;-82
2022/11/03 06:29:55;;;;;;;;;;;6.10;84.70;;;;;;4978018;28;19945;-81
2022/11/03 06:32:21;;;;;;;;;;;6.10;84.70;;;;;;4969776;28;19922;-82
2022/11/03 06:34:47;;;;;;;;;;;6.10;84.70;;;;;;4969825;28;19941;-82
2022/11/03 06:37:19;;;;;;;;;;;6.10;84.70;;;;;;4960292;28;19922;-82
2022/11/03 06:39:44;;;;;;;;;;;6.10;84.80;;;;;;4963764;28;20369;-81
2022/11/03 06:42:10;;;;;;;;;;;6.10;84.70;;;;;;4964774;28;19969;-81
2022/11/03 06:44:36;;;;;;;;;;;6.20;84.70;;;;;;4971371;28;19924;-81
2022/11/03 06:47:05;;;;;;;;;;;6.20;84.70;;;;;;4950729;28;20234;-81
2022/11/03 06:49:31;;;;;;;;;;;6.20;84.70;;;;;;4952342;28;19924;-81
2022/11/03 06:52:15;;;;;;;;;;;6.20;84.70;;;;;;4970550;28;19926;-81
2022/11/03 06:54:41;;;;;;;;;;;6.30;84.80;;;;;;4985720;28;19914;-81
2022/11/03 06:57:10;;;;;;;;;;;6.30;84.70;;;;;;4972408;28;19918;-81
2022/11/03 06:59:36;;;;;;;;;;;6.30;84.60;;;;;;4961373;28;19918;-82
2022/11/03 07:02:01;;;;;;;;;;;6.30;84.70;;;;;;4965345;28;19925;-82
2022/11/03 07:04:27;;;;;;;;;;;6.30;84.60;;;;;;4985844;28;20073;-81
2022/11/03 07:06:52;;;;;;;;;;;6.30;84.60;;;;;;4982714;28;19926;-81
2022/11/03 07:09:19;;;;;;;;;;;6.30;84.70;;;;;;4966818;28;20011;-80
2022/11/03 07:12:02;;;;;;;;;;;6.30;84.60;;;;;;4942355;28;20028;-82
2022/11/03 07:14:28;;;;;;;;;;;6.30;84.70;;;;;;4949815;28;19926;-81
2022/11/03 07:16:55;;;;;;;;;;;6.40;84.80;;;;;;4972712;28;19917;-81
2022/11/03 07:19:20;;;;;;;;;;;6.40;84.80;;;;;;4988427;28;20355;-81
2022/11/03 07:22:14;;;;;;;;;;;6.40;84.70;;;;;;4981277;28;19914;-82
2022/11/03 07:24:40;;;;;;;;;;;6.40;84.70;;;;;;4984080;28;20316;-82
2022/11/03 07:27:06;;;;;;;;;;;6.40;84.60;;;;;;4985602;28;19950;-81
2022/11/03 07:29:31;;;;;;;;;;;6.40;84.70;;;;;;4989406;28;20012;-82
2022/11/03 07:31:57;;;;;;;;;;;6.50;84.70;;;;;;5006282;28;19918;-81
2022/11/03 07:34:24;;;;;;;;;;;6.50;84.70;;;;;;4999938;28;19918;-81
2022/11/03 07:36:49;;;;;;;;;;;6.50;84.70;;;;;;5001275;28;19926;-81
2022/11/03 07:39:17;;;;;;;;;;;6.50;84.70;;;;;;4990879;28;19944;-82
2022/11/03 07:41:42;;;;;;;;;;;6.50;84.70;;;;;;5000102;28;19960;-81
2022/11/03 07:44:07;;;;;;;;;;;6.60;84.70;;;;;;4985808;28;19953;-81
2022/11/03 07:46:33;;;;;;;;;;;6.60;84.60;;;;;;4999574;28;19913;-81
2022/11/03 07:49:00;;;;;;;;;;;6.70;84.70;;;;;;4987589;28;19945;-82
2022/11/03 07:51:28;;;;;;;;;;;6.70;84.60;;;;;;5000009;28;19914;-81
2022/11/03 07:54:09;;;;;;;;;;;6.70;84.50;;;;;;4989107;28;19940;-82
2022/11/03 07:56:37;;;;;;;;;;;6.70;84.50;;;;;;4990222;28;20001;-82
2022/11/03 07:59:04;;;;;;;;;;;6.70;84.50;;;;;;5006760;28;19980;-82
2022/11/03 08:01:36;;;;;;;;;;;6.80;84.70;;;;;;5002770;28;19925;-82
2022/11/03 08:04:09;;;;;;;;;;;6.80;84.60;;;;;;4971609;28;19989;-82
2022/11/03 08:06:34;;;;;;;;;;;6.80;84.60;;;;;;4981881;28;19934;-81
2022/11/03 08:08:59;;;;;;;;;;;6.80;84.60;;;;;;4945651;28;19933;-82
2022/11/03 08:11:25;;;;;;;;;;;6.90;84.60;;;;;;4956682;28;19923;-82
2022/11/03 08:13:50;;;;;;;;;;;6.90;84.60;;;;;;4947385;28;19918;-82
2022/11/03 08:16:16;;;;;;;;;;;6.90;84.60;;;;;;4950703;28;19922;-81
2022/11/03 08:18:42;;;;;;;;;;;7.00;84.50;;;;;;4944518;28;20397;-81
2022/11/03 08:21:07;;;;;;;;;;;7.00;84.50;;;;;;4959659;28;19957;-82
2022/11/03 08:23:33;;;;;;;;;;;7.00;84.50;;;;;;4955348;28;19922;-82
2022/11/03 08:25:58;;;;;;;;;;;7.10;84.40;;;;;;4959971;28;19918;-82
2022/11/03 08:28:24;;;;;;;;;;;7.10;84.40;;;;;;4949429;28;19925;-81
2022/11/03 08:30:49;;;;;;;;;;;7.20;84.50;;;;;;4969220;28;19929;-81
2022/11/03 08:33:15;;;;;;;;;;;7.20;84.40;;;;;;4962118;28;19973;-81
2022/11/03 08:35:40;;;;;;;;;;;7.30;84.40;;;;;;4947578;28;19929;-82
2022/11/03 08:38:06;;;;;;;;;;;7.30;84.30;;;;;;4958609;28;19921;-81
2022/11/03 08:40:31;;;;;;;;;;;7.30;84.30;;;;;;4944265;28;20331;-83
2022/11/03 08:42:57;;;;;;;;;;;7.30;84.30;;;;;;4930367;28;20676;-82
2022/11/03 08:45:22;;;;;;;;;;;7.40;84.30;;;;;;4933391;28;19987;-81
2022/11/03 08:47:48;;;;;;;;;;;7.40;84.30;;;;;;4942877;28;19925;-82
2022/11/03 08:50:14;;;;;;;;;;;7.50;84.30;;;;;;4947149;28;19918;-81
2022/11/03 08:52:39;;;;;;;;;;;7.50;84.20;;;;;;4934892;28;19918;-81
2022/11/03 08:55:05;;;;;;;;;;;7.50;84.20;;;;;;4959726;28;19918;-81
2022/11/03 08:57:30;;;;;;;;;;;7.60;84.20;;;;;;4953276;28;20292;-83
2022/11/03 08:59:56;;;;;;;;;;;7.60;84.10;;;;;;4948083;28;19925;-82
2022/11/03 09:02:22;;;;;;;;;;;7.70;84.20;;;;;;4927136;28;20011;-81
2022/11/03 09:04:47;;;;;;;;;;;7.70;84.10;;;;;;4939302;28;19973;-81
2022/11/03 09:07:13;;;;;;;;;;;7.80;84.20;;;;;;4967779;28;19922;-81
2022/11/03 09:09:38;;;;;;;;;;;7.80;84.10;;;;;;4968169;28;19924;-81
2022/11/03 09:12:06;;;;;;;;;;;7.80;84.10;;;;;;4966875;28;20294;-81
2022/11/03 09:14:31;;;;;;;;;;;7.90;84.10;;;;;;4957206;28;20174;-82
2022/11/03 09:16:57;;;;;;;;;;;7.90;84.00;;;;;;4971288;28;19917;-82
2022/11/03 09:19:22;;;;;;;;;;;8.00;84.00;;;;;;4983577;28;19926;-82
2022/11/03 09:21:48;;;;;;;;;;;8.10;84.10;;;;;;4978526;28;19918;-81
2022/11/03 09:24:13;;;;;;;;;;;8.10;84.00;;;;;;4961237;28;21364;-82
2022/11/03 09:26:38;;;;;;;;;;;8.20;84.00;;;;;;4967692;28;19918;-82
2022/11/03 09:29:04;;;;;;;;;;;8.30;84.00;;;;;;4966988;28;19998;-82
2022/11/03 09:31:29;;;;;;;;;;;8.40;84.00;;;;;;4963075;28;20379;-82
2022/11/03 09:33:55;;;;;;;;;;;8.50;83.90;;;;;;4988029;28;19969;-82
2022/11/03 09:36:20;;;;;;;;;;;8.50;83.80;;;;;;4970622;28;19926;-83
2022/11/03 09:38:46;;;;;;;;;;;8.60;83.80;;;;;;4974648;28;20535;-81
2022/11/03 09:41:16;;;;;;;;;;;8.70;83.90;;;;;;4973011;28;19918;-82
2022/11/03 09:43:43;;;;;;;;;;;8.90;83.90;;;;;;4986600;28;19925;-82
2022/11/03 09:46:08;;;;;;;;;;;9.00;83.90;;;;;;4994385;28;19981;-81
2022/11/03 09:48:33;;;;;;;;;;;9.20;83.60;;;;;;4974259;28;20021;-81
2022/11/03 09:51:00;;;;;;;;;;;9.30;83.50;;;;;;4972480;28;19925;-83
2022/11/03 09:53:25;;;;;;;;;;;9.50;83.50;;;;;;4971496;28;19918;-81
2022/11/03 09:55:50;;;;;;;;;;;9.60;83.30;;;;;;4970819;28;19933;-82
2022/11/03 09:58:16;;;;;;;;;;;9.80;83.20;;;;;;4969938;28;19929;-82
2022/11/03 10:00:42;;;;;;;;;;;10.00;83.10;;;;;;4986977;28;19925;-82
2022/11/03 10:03:10;;;;;;;;;;;10.20;83.10;;;;;;4966049;28;19923;-82
2022/11/03 10:05:36;;;;;;;;;;;10.40;82.90;;;;;;4963089;28;19930;-82
2022/11/03 10:08:02;;;;;;;;;;;10.60;82.90;;;;;;4956199;28;20157;-82
2022/11/03 10:10:27;;;;;;;;;;;10.80;82.80;;;;;;4963311;28;20300;-82
2022/11/03 10:12:54;;;;;;;;;;;10.90;82.50;;;;;;4973644;28;19922;-82
2022/11/03 10:15:20;;;;;;;;;;;11.10;82.40;;;;;;4990384;28;19959;-82
2022/11/03 10:17:46;;;;;;;;;;;11.20;82.30;;;;;;4939801;28;20475;-83
2022/11/03 10:20:11;;;;;;;;;;;11.30;82.20;;;;;;4951599;28;19919;-82
2022/11/03 10:22:37;;;;;;;;;;;11.40;82.10;;;;;;4951471;28;19929;-81
2022/11/03 10:25:21;;;;;;;;;;;11.60;82.00;;;;;;4944632;28;19922;-83
2022/11/03 10:27:47;;;;;;;;;;;11.60;81.80;;;;;;4965299;28;20448;-82
2022/11/03 10:30:13;;;;;;;;;;;11.70;81.80;;;;;;4937883;28;19922;-82
2022/11/03 10:32:40;;;;;;;;;;;11.80;81.80;;;;;;4937484;28;19922;-82
2022/11/03 10:35:24;;;;;;;;;;;11.80;81.70;;;;;;4963786;28;19950;-82
2022/11/03 10:37:50;;;;;;;;;;;11.90;81.60;;;;;;4950270;28;19948;-82
2022/11/03 10:40:32;;;;;;;;;;;11.90;81.50;;;;;;4961008;28;20443;-82
2022/11/03 10:42:58;;;;;;;;;;;12.00;81.50;;;;;;4944748;28;19926;-82
2022/11/03 10:45:23;;;;;;;;;;;12.10;82.20;;;;;;4962629;28;19918;-82
2022/11/03 10:47:58;;;;;;;;;;;12.20;81.40;;;;;;4971168;28;19937;-81
2022/11/03 10:50:25;;;;;;;;;;;12.20;81.30;;;;;;4966889;28;19926;-82
2022/11/03 10:52:50;;;;;;;;;;;12.30;81.30;;;;;;4969147;28;19922;-81
2022/11/03 10:55:16;;;;;;;;;;;12.40;81.20;;;;;;4964027;28;20697;-82
2022/11/03 10:57:42;;;;;;;;;;;12.50;81.20;;;;;;4949549;28;20016;-81
2022/11/03 11:00:11;;;;;;;;;;;12.50;81.10;;;;;;4966058;28;20062;-81
2022/11/03 11:02:40;;;;;;;;;;;12.60;81.00;;;;;;4968104;28;19968;-81
2022/11/03 11:05:32;;;;;;;;;;;12.60;81.00;;;;;;4951689;28;20328;-83
2022/11/03 11:07:58;;;;;;;;;;;12.60;81.00;;;;;;4967142;28;19925;-82
2022/11/03 11:10:23;;;;;;;;;;;12.70;81.00;;;;;;4962688;28;20091;-82
2022/11/03 11:13:04;;;;;;;;;;;12.70;80.90;;;;;;4951451;28;19950;-82
2022/11/03 11:15:37;;;;;;;;;;;12.70;80.90;;;;;;4964687;28;19918;-82
2022/11/03 11:18:03;;;;;;;;;;;12.80;80.90;;;;;;4963356;28;19925;-82
2022/11/03 11:20:31;;;;;;;;;;;12.80;80.80;;;;;;4947452;28;19922;-83
2022/11/03 11:23:16;;;;;;;;;;;12.80;80.80;;;;;;4967255;28;20758;-83
2022/11/03 11:26:00;;;;;;;;;;;12.90;80.80;;;;;;4980418;28;19918;-83
2022/11/03 11:28:25;;;;;;;;;;;13.00;80.70;;;;;;4965346;28;19926;-82
2022/11/03 11:30:54;;;;;;;;;;;13.10;80.70;;;;;;4970288;28;19914;-82
2022/11/03 11:33:23;;;;;;;;;;;13.10;80.70;;;;;;4980188;28;19923;-82
2022/11/03 11:35:48;;;;;;;;;;;13.20;80.70;;;;;;4961823;28;19925;-82
2022/11/03 11:38:32;;;;;;;;;;;13.30;80.60;;;;;;4970998;28;20331;-82
2022/11/03 11:40:58;;;;;;;;;;;13.40;80.60;;;;;;4956613;28;19919;-82
2022/11/03 11:43:24;;;;;;;;;;;13.50;80.40;;;;;;4945161;28;20419;-82
2022/11/03 11:46:08;;;;;;;;;;;13.60;80.20;;;;;;4962545;28;19922;-82
2022/11/03 11:48:34;;;;;;;;;;;13.70;80.20;;;;;;4960166;28;19921;-83
2022/11/03 11:50:59;;;;;;;;;;;13.80;80.10;;;;;;4945347;28;20668;-81
2022/11/03 11:53:25;;;;;;;;;;;13.90;80.10;;;;;;4943274;28;20319;-81
2022/11/03 11:55:53;;;;;;;;;;;14.00;79.90;;;;;;4948346;28;19925;-81
2022/11/03 11:58:27;;;;;;;;;;;14.10;79.80;;;;;;4960337;28;19914;-80
2022/11/03 12:00:58;;;;;;;;;;;14.20;79.80;;;;;;4964675;28;20955;-81
2022/11/03 12:03:28;;;;;;;;;;;14.30;79.70;;;;;;4918912;28;19930;-80
2022/11/03 12:05:53;;;;;;;;;;;14.40;79.60;;;;;;4945425;28;19940;-81
2022/11/03 12:08:20;;;;;;;;;;;14.40;79.40;;;;;;4969075;28;19929;-78
2022/11/03 12:10:52;;;;;;;;;;;14.50;79.50;;;;;;4953957;28;19918;-81
2022/11/03 12:13:53;;;;;;;;;;;14.50;79.40;;;;;;4961200;28;20026;-80
2022/11/03 12:16:30;;;;;;;;;;;14.50;80.10;;;;;;4945343;28;20628;-81
2022/11/03 12:18:56;;;;;;;;;;;14.50;79.30;;;;;;4963792;28;20004;-80
2022/11/03 12:21:40;;;;;;;;;;;14.50;79.30;;;;;;4948093;28;20538;-81
2022/11/03 12:24:24;;;;;;;;;;;14.50;79.30;;;;;;4951137;28;19926;-81
2022/11/03 12:26:49;;;;;;;;;;;14.60;79.40;;;;;;4954283;28;19918;-81
2022/11/03 12:29:14;;;;;;;;;;;14.70;79.30;;;;;;4956037;28;19922;-81
2022/11/03 12:31:40;;;;;;;;;;;14.70;79.30;;;;;;4945577;28;19915;-81
2022/11/03 12:34:05;;;;;;;;;;;14.80;79.20;;;;;;4957698;28;19915;-81
2022/11/03 12:36:31;;;;;;;;;;;14.80;79.10;;;;;;4943113;28;19919;-81
2022/11/03 12:38:57;;;;;;;;;;;14.80;79.10;;;;;;4955836;28;21021;-81
2022/11/03 12:41:25;;;;;;;;;;;14.80;79.00;;;;;;4938382;28;19922;-81
2022/11/03 12:43:51;;;;;;;;;;;14.90;79.80;;;;;;4929193;28;20491;-81
2022/11/03 12:46:17;;;;;;;;;;;14.90;79.00;;;;;;4926808;28;19949;-81
2022/11/03 12:48:42;;;;;;;;;;;15.00;79.00;;;;;;4960284;28;19925;-81
2022/11/03 12:51:18;;;;;;;;;;;14.90;78.90;;;;;;4965730;28;20292;-80
2022/11/03 12:53:43;;;;;;;;;;;14.90;78.90;;;;;;4968737;28;19960;-81
2022/11/03 12:56:09;;;;;;;;;;;14.80;78.90;;;;;;4987804;28;19961;-81
2022/11/03 12:58:34;;;;;;;;;;;14.80;79.10;;;;;;4951585;28;20380;-81
2022/11/03 13:01:00;;;;;;;;;;;14.80;79.10;;;;;;4969555;28;19973;-80
2022/11/03 13:03:25;;;;;;;;;;;14.80;79.10;;;;;;4984074;28;20009;-81
2022/11/03 13:05:51;;;;;;;;;;;14.80;79.10;;;;;;4957020;28;19930;-79
2022/11/03 13:08:16;;;;;;;;;;;14.80;79.20;;;;;;4955229;28;20184;-80
2022/11/03 13:10:42;;;;;;;;;;;14.80;79.10;;;;;;4955641;28;19977;-80
2022/11/03 13:13:07;;;;;;;;;;;14.90;79.10;;;;;;4966380;28;19929;-81
2022/11/03 13:15:33;;;;;;;;;;;14.90;79.00;;;;;;4956801;28;19980;-81
2022/11/03 13:17:58;;;;;;;;;;;14.90;79.00;;;;;;4952194;28;19922;-81
2022/11/03 13:20:24;;;;;;;;;;;14.90;78.90;;;;;;4971254;28;19930;-81
2022/11/03 13:22:49;;;;;;;;;;;14.90;78.90;;;;;;4941652;28;19925;-81
2022/11/03 13:25:15;;;;;;;;;;;15.00;79.00;;;;;;4956560;28;20552;-81
2022/11/03 13:27:40;;;;;;;;;;;15.00;79.00;;;;;;4957145;28;20402;-81
2022/11/03 13:30:08;;;;;;;;;;;14.90;78.90;;;;;;4941983;28;20439;-81
2022/11/03 13:32:33;;;;;;;;;;;14.90;78.90;;;;;;4973323;28;19930;-81
2022/11/03 13:34:59;;;;;;;;;;;14.90;78.90;;;;;;4962587;28;19945;-81
2022/11/03 13:37:24;;;;;;;;;;;14.90;78.90;;;;;;4934529;28;19926;-81
2022/11/03 13:39:50;;;;;;;;;;;14.90;78.90;;;;;;4934726;28;19918;-81
2022/11/03 13:42:15;;;;;;;;;;;14.90;78.90;;;;;;4960239;28;19922;-81
2022/11/03 13:44:41;;;;;;;;;;;14.90;78.90;;;;;;4960908;28;19922;-81
2022/11/03 13:47:06;;;;;;;;;;;14.80;78.80;;;;;;4964902;28;19919;-81
2022/11/03 13:49:32;;;;;;;;;;;14.80;78.90;;;;;;4940767;28;20455;-81
2022/11/03 13:51:58;;;;;;;;;;;14.80;78.90;;;;;;4920425;28;19922;-81
2022/11/03 13:54:23;;;;;;;;;;;14.80;78.90;;;;;;4965204;28;19922;-81
2022/11/03 13:56:49;;;;;;;;;;;14.70;79.00;;;;;;4938488;28;20586;-81
2022/11/03 13:59:14;;;;;;;;;;;14.70;79.00;;;;;;4958095;28;19918;-80
2022/11/03 14:01:40;;;;;;;;;;;14.70;79.10;;;;;;4930212;29;19976;-81
2022/11/03 14:04:05;;;;;;;;;;;14.60;79.10;;;;;;4937217;28;20341;-81
2022/11/03 14:06:32;;;;;;;;;;;14.60;79.10;;;;;;4923706;28;20012;-81
2022/11/03 14:08:57;;;;;;;;;;;14.60;79.10;;;;;;4972308;28;19972;-81
2022/11/03 14:14:07;;;;;;;;;;;14.50;79.20;;;;;;4975457;28;19925;-81
2022/11/03 14:16:36;;;;;;;;;;;14.50;79.20;;;;;;4972872;28;19925;-81
2022/11/03 14:19:01;;;;;;;;;;;14.50;79.20;;;;;;4973852;28;19934;-81
2022/11/03 14:21:26;;;;;;;;;;;14.50;79.20;;;;;;4967238;28;19918;-81
2022/11/03 14:23:52;;;;;;;;;;;14.50;79.20;;;;;;4956391;28;20016;-81
2022/11/03 14:26:17;;;;;;;;;;;14.50;79.30;;;;;;4960030;28;20308;-81
2022/11/03 14:28:43;;;;;;;;;;;14.50;79.30;;;;;;4967477;28;19921;-81
2022/11/03 14:31:08;;;;;;;;;;;14.50;79.20;;;;;;4971026;28;20447;-80
2022/11/03 14:33:34;;;;;;;;;;;14.40;79.20;;;;;;4951789;28;19976;-81
2022/11/03 14:35:59;;;;;;;;;;;14.50;79.30;;;;;;4973930;28;19953;-82
2022/11/03 14:38:25;;;;;;;;;;;14.40;79.20;;;;;;4967875;28;19937;-81
2022/11/03 14:43:34;;;;;;;;;;;14.40;79.30;;;;;;4968997;28;19940;-81
2022/11/03 14:46:00;;;;;;;;;;;14.40;79.30;;;;;;4971575;28;19926;-82
2022/11/03 14:48:25;;;;;;;;;;;14.40;79.30;;;;;;4966912;28;19930;-81
2022/11/03 14:50:52;;;;;;;;;;;14.40;79.40;;;;;;4964097;28;19965;-81